Terminal Aerodrome Forecast
Issued by NWS Mt. Holly, NJ

Home | Current Version | Previous Version | Text Only | Print | Product List | Glossary On
Versions: 1 2 3 4 5 6 7 8 9 10 11 12 13 14 15 16 17 18 19 20 21 22 23 24
000
FTUS41 KPHI 031123
TAFACY
TAF
KACY 031123Z 0312/0412 VRB03KT P6SM BKN100
     FM031900 15006KT P6SM -SHSN OVC045
     FM032100 15008KT 4SM -PL OVC025
     FM032200 15008KT 2SM -RAPL OVC010
     FM040000 17008KT 1SM RA BR OVC008 WS020/21040KT
     FM040200 20012KT 2SM RA BR OVC005 WS015/23055KT
     FM040800 24010KT 2SM -RADZ BR OVC005 WS020/25045KT=

USA.gov is the U.S. government's official web portal to all federal, state and local government web resources and services.